Time;durP1;ratioP1;P1;durP2;ratioP2;P2;SDS_P1;SDS_P2;PMS_P1;PMS_P2;Temp;Humidity;BMP_temperature;BMP_pressure;BME280_temperature;BME280_humidity;BME280_pressure;Samples;Min_cycle;Max_cycle;Signal;HPM_P1;HPM_P2
2023/09/29 00:01:03;;;;;;;17.40;11.30;;;;;;;;;;5074505;28;20036;-58
2023/09/29 00:03:29;;;;;;;14.00;9.82;;;;;;;;;;5092964;28;20028;-60
2023/09/29 00:05:55;;;;;;;15.63;10.93;;;;;;;;;;5092722;28;20134;-60
2023/09/29 00:08:22;;;;;;;13.93;9.82;;;;;;;;;;5092955;28;20107;-60
2023/09/29 00:10:50;;;;;;;15.38;10.90;;;;;;;;;;5074305;28;20554;-61
2023/09/29 00:13:16;;;;;;;16.05;11.50;;;;;;;;;;5093045;28;20028;-60
2023/09/29 00:15:42;;;;;;;14.10;9.95;;;;;;;;;;5074609;28;20459;-61
2023/09/29 00:18:08;;;;;;;16.05;10.90;;;;;;;;;;5074592;28;20020;-59
2023/09/29 00:20:35;;;;;;;15.55;11.48;;;;;;;;;;5092336;28;20447;-60
2023/09/29 00:23:01;;;;;;;14.30;9.88;;;;;;;;;;5092014;28;20016;-61
2023/09/29 00:25:28;;;;;;;14.40;10.30;;;;;;;;;;5092334;28;20059;-61
2023/09/29 00:27:55;;;;;;;15.30;11.32;;;;;;;;;;5074150;28;20030;-61
2023/09/29 00:30:21;;;;;;;14.38;10.02;;;;;;;;;;5091970;28;20036;-61
2023/09/29 00:32:50;;;;;;;14.75;10.25;;;;;;;;;;5074057;28;20036;-61
2023/09/29 00:35:38;;;;;;;14.50;9.93;;;;;;;;;;5092069;28;20078;-61
2023/09/29 00:38:03;;;;;;;14.35;10.18;;;;;;;;;;5091676;28;20048;-62
2023/09/29 00:40:30;;;;;;;14.00;9.70;;;;;;;;;;5073784;28;20447;-61
2023/09/29 00:42:59;;;;;;;17.02;11.57;;;;;;;;;;5091862;28;20073;-61
2023/09/29 00:45:26;;;;;;;16.17;11.13;;;;;;;;;;5091909;28;20469;-61
2023/09/29 00:47:57;;;;;;;15.43;11.50;;;;;;;;;;5091965;28;20036;-60
2023/09/29 00:50:23;;;;;;;15.27;9.73;;;;;;;;;;5091945;28;20043;-59
2023/09/29 00:52:58;;;;;;;18.30;10.43;;;;;;;;;;5073608;28;20039;-61
2023/09/29 00:55:27;;;;;;;33.97;11.93;;;;;;;;;;5091842;28;20107;-61
2023/09/29 00:57:56;;;;;;;17.40;10.40;;;;;;;;;;5091747;28;20028;-60
2023/09/29 01:02:55;;;;;;;14.75;10.20;;;;;;;;;;5091707;28;20024;-61
2023/09/29 01:05:21;;;;;;;15.75;11.27;;;;;;;;;;5091680;28;20067;-61
2023/09/29 01:07:47;;;;;;;15.65;10.73;;;;;;;;;;5073306;28;20020;-62
2023/09/29 01:10:13;;;;;;;14.43;10.57;;;;;;;;;;5091469;28;20056;-63
2023/09/29 01:12:40;;;;;;;16.08;10.13;;;;;;;;;;5073718;28;20028;-62
2023/09/29 01:15:06;;;;;;;15.18;11.63;;;;;;;;;;5091447;28;20043;-61
2023/09/29 01:17:32;;;;;;;14.35;10.25;;;;;;;;;;5091364;28;20027;-61
2023/09/29 01:19:58;;;;;;;15.05;10.63;;;;;;;;;;5072942;28;20028;-60
2023/09/29 01:22:26;;;;;;;14.20;10.07;;;;;;;;;;5091253;28;20432;-61
2023/09/29 01:24:52;;;;;;;13.90;9.40;;;;;;;;;;5072805;28;20476;-61
2023/09/29 01:27:18;;;;;;;14.75;9.65;;;;;;;;;;5091255;28;20059;-62
2023/09/29 01:29:44;;;;;;;15.10;11.82;;;;;;;;;;5091111;28;20038;-61
2023/09/29 01:32:13;;;;;;;14.10;9.70;;;;;;;;;;5072919;28;20482;-59
2023/09/29 01:34:40;;;;;;;14.25;10.07;;;;;;;;;;5090280;28;20048;-61
2023/09/29 01:37:07;;;;;;;13.85;9.50;;;;;;;;;;5091190;28;20133;-59
2023/09/29 01:39:34;;;;;;;14.00;9.50;;;;;;;;;;5091171;28;20032;-61
2023/09/29 01:42:00;;;;;;;13.93;9.52;;;;;;;;;;5090957;28;20401;-60
2023/09/29 01:44:26;;;;;;;14.00;9.70;;;;;;;;;;5072706;28;20497;-59
2023/09/29 01:46:53;;;;;;;14.20;10.05;;;;;;;;;;5090766;28;20069;-59
2023/09/29 01:49:20;;;;;;;13.77;9.07;;;;;;;;;;5072274;28;20095;-58
2023/09/29 01:51:46;;;;;;;14.55;10.20;;;;;;;;;;5090794;28;20038;-61
2023/09/29 01:54:12;;;;;;;13.98;9.60;;;;;;;;;;5072737;28;20127;-60
2023/09/29 01:56:38;;;;;;;14.05;9.80;;;;;;;;;;5091032;28;20043;-61
2023/09/29 01:59:04;;;;;;;15.27;11.85;;;;;;;;;;5090827;28;20024;-59
2023/09/29 02:01:34;;;;;;;14.40;10.13;;;;;;;;;;5090659;28;20539;-59
2023/09/29 02:04:00;;;;;;;14.07;9.88;;;;;;;;;;5090560;28;20028;-57
2023/09/29 02:06:27;;;;;;;15.05;10.70;;;;;;;;;;5090699;28;20031;-60
2023/09/29 02:08:53;;;;;;;14.10;10.00;;;;;;;;;;5090610;28;20077;-61
2023/09/29 02:11:19;;;;;;;15.45;10.65;;;;;;;;;;5072215;28;20057;-62
2023/09/29 02:13:45;;;;;;;14.77;10.68;;;;;;;;;;5090754;28;20545;-58
2023/09/29 02:16:12;;;;;;;15.15;11.25;;;;;;;;;;5090546;28;20084;-60
2023/09/29 02:18:38;;;;;;;14.32;10.32;;;;;;;;;;5090511;28;20067;-59
2023/09/29 02:21:08;;;;;;;13.85;9.35;;;;;;;;;;5090182;28;20033;-60
2023/09/29 02:23:35;;;;;;;13.85;9.30;;;;;;;;;;5072293;28;20458;-60
2023/09/29 02:26:01;;;;;;;14.63;10.40;;;;;;;;;;5090040;28;20039;-59
2023/09/29 02:28:31;;;;;;;14.20;10.10;;;;;;;;;;5090474;28;20031;-61
2023/09/29 02:30:58;;;;;;;13.98;9.65;;;;;;;;;;5090463;28;20043;-60
2023/09/29 02:33:26;;;;;;;14.07;9.73;;;;;;;;;;5090460;28;20473;-59
2023/09/29 02:35:52;;;;;;;14.00;9.60;;;;;;;;;;5090549;28;20066;-61
2023/09/29 02:38:18;;;;;;;13.93;9.60;;;;;;;;;;5089723;28;20532;-60
2023/09/29 02:40:47;;;;;;;14.10;9.50;;;;;;;;;;5089364;28;20107;-57
2023/09/29 02:43:13;;;;;;;14.55;10.30;;;;;;;;;;5089665;28;20036;-60
2023/09/29 02:45:40;;;;;;;14.13;9.80;;;;;;;;;;5089753;28;20036;-56
2023/09/29 02:48:06;;;;;;;14.43;10.20;;;;;;;;;;5094055;28;20596;-62
2023/09/29 02:50:36;;;;;;;14.10;9.95;;;;;;;;;;5093731;28;20149;-59
2023/09/29 02:53:03;;;;;;;16.73;10.15;;;;;;;;;;5092297;28;20099;-60
2023/09/29 02:55:29;;;;;;;16.40;10.25;;;;;;;;;;5092443;28;20031;-62
2023/09/29 02:57:55;;;;;;;15.13;10.48;;;;;;;;;;5092500;28;20395;-59
2023/09/29 03:00:23;;;;;;;14.18;10.00;;;;;;;;;;5092223;28;20494;-60
2023/09/29 03:02:51;;;;;;;13.98;9.70;;;;;;;;;;5092246;28;20113;-59
2023/09/29 03:05:17;;;;;;;13.90;9.60;;;;;;;;;;5092034;28;20024;-60
2023/09/29 03:07:43;;;;;;;14.30;10.55;;;;;;;;;;5093540;28;20024;-60
2023/09/29 03:10:13;;;;;;;15.45;10.98;;;;;;;;;;5075547;28;20466;-58
2023/09/29 03:12:39;;;;;;;14.35;10.45;;;;;;;;;;5094007;28;20072;-58
2023/09/29 03:15:09;;;;;;;14.30;9.80;;;;;;;;;;5075438;28;20035;-60
2023/09/29 03:17:36;;;;;;;16.48;10.48;;;;;;;;;;5093795;28;20111;-58
2023/09/29 03:20:08;;;;;;;14.30;10.05;;;;;;;;;;5093557;28;20020;-58
2023/09/29 03:22:37;;;;;;;14.20;10.35;;;;;;;;;;5093443;28;20024;-61
2023/09/29 03:25:03;;;;;;;14.10;10.07;;;;;;;;;;5093179;28;20052;-60
2023/09/29 03:27:29;;;;;;;15.15;10.95;;;;;;;;;;5093464;28;20760;-62
2023/09/29 03:29:55;;;;;;;14.23;10.18;;;;;;;;;;5075208;28;20052;-60
2023/09/29 03:32:21;;;;;;;14.43;10.50;;;;;;;;;;5093361;28;20056;-60
2023/09/29 03:34:48;;;;;;;14.20;10.40;;;;;;;;;;5093286;28;20030;-62
2023/09/29 03:37:14;;;;;;;13.90;9.55;;;;;;;;;;5074952;28;20024;-61
2023/09/29 03:39:40;;;;;;;14.30;10.38;;;;;;;;;;5093400;28;20081;-61
2023/09/29 03:42:06;;;;;;;14.00;9.88;;;;;;;;;;5093145;28;20036;-61
2023/09/29 03:44:33;;;;;;;14.85;10.63;;;;;;;;;;5092964;28;20043;-59
2023/09/29 03:47:00;;;;;;;14.00;9.85;;;;;;;;;;5092926;28;20072;-61
2023/09/29 03:49:26;;;;;;;14.13;9.82;;;;;;;;;;5092867;28;20385;-62
2023/09/29 03:51:52;;;;;;;14.90;11.15;;;;;;;;;;5074507;28;20024;-61
2023/09/29 03:54:19;;;;;;;13.93;9.60;;;;;;;;;;5092510;28;20032;-62
2023/09/29 03:56:45;;;;;;;14.00;9.70;;;;;;;;;;5074385;28;20076;-61
2023/09/29 03:59:11;;;;;;;14.27;9.98;;;;;;;;;;5091815;28;20604;-62
2023/09/29 04:01:37;;;;;;;14.43;10.13;;;;;;;;;;5074366;28;20118;-61
2023/09/29 04:04:03;;;;;;;14.65;10.40;;;;;;;;;;5092762;28;20496;-61
2023/09/29 04:06:30;;;;;;;14.32;9.80;;;;;;;;;;5092487;28;20102;-61
2023/09/29 04:08:57;;;;;;;14.25;9.77;;;;;;;;;;5092693;28;20114;-59
2023/09/29 04:11:23;;;;;;;14.10;10.00;;;;;;;;;;5092517;28;20058;-59
2023/09/29 04:13:49;;;;;;;14.77;10.70;;;;;;;;;;5092716;28;20375;-61
2023/09/29 04:16:17;;;;;;;13.93;9.38;;;;;;;;;;5092375;28;20027;-59
2023/09/29 04:18:43;;;;;;;14.10;9.90;;;;;;;;;;5092486;28;20028;-61
2023/09/29 04:21:13;;;;;;;14.63;10.38;;;;;;;;;;5092133;28;20439;-62
2023/09/29 04:23:39;;;;;;;14.00;9.90;;;;;;;;;;5074338;28;20054;-61
2023/09/29 04:26:13;;;;;;;14.05;9.95;;;;;;;;;;5092335;28;20028;-63
2023/09/29 04:28:39;;;;;;;14.40;10.32;;;;;;;;;;5092405;28;20021;-60
2023/09/29 04:31:05;;;;;;;14.07;9.93;;;;;;;;;;5092073;28;20527;-58
2023/09/29 04:33:31;;;;;;;14.10;10.00;;;;;;;;;;5092150;28;20056;-61
2023/09/29 04:35:57;;;;;;;14.50;10.85;;;;;;;;;;5091991;28;20028;-61
2023/09/29 04:38:23;;;;;;;15.27;10.20;;;;;;;;;;5092170;28;20050;-56
2023/09/29 04:40:49;;;;;;;14.15;10.30;;;;;;;;;;5091772;28;20470;-59
2023/09/29 04:43:15;;;;;;;14.40;10.50;;;;;;;;;;5073796;28;20052;-62
2023/09/29 04:45:41;;;;;;;14.00;9.80;;;;;;;;;;5091586;28;20027;-62
2023/09/29 04:48:08;;;;;;;14.63;10.55;;;;;;;;;;5091707;28;20020;-61
2023/09/29 04:50:34;;;;;;;14.70;10.23;;;;;;;;;;5091672;28;20534;-59
2023/09/29 04:53:00;;;;;;;15.07;10.70;;;;;;;;;;5091669;28;20028;-61
2023/09/29 04:55:28;;;;;;;14.25;10.18;;;;;;;;;;5091710;28;20153;-61
2023/09/29 04:57:54;;;;;;;22.20;10.65;;;;;;;;;;5091531;28;20109;-61
2023/09/29 05:00:21;;;;;;;14.30;10.13;;;;;;;;;;5073200;28;20503;-62
2023/09/29 05:02:47;;;;;;;14.65;10.13;;;;;;;;;;5091418;28;20028;-61
2023/09/29 05:05:13;;;;;;;15.00;10.77;;;;;;;;;;5091476;28;20069;-61
2023/09/29 05:07:39;;;;;;;14.20;10.10;;;;;;;;;;5091120;28;20020;-60
2023/09/29 05:10:06;;;;;;;24.65;11.07;;;;;;;;;;5072944;28;20024;-61
2023/09/29 05:12:33;;;;;;;14.00;9.73;;;;;;;;;;5073016;28;20036;-62
2023/09/29 05:14:59;;;;;;;14.10;9.77;;;;;;;;;;5091019;28;20034;-60
2023/09/29 05:17:25;;;;;;;14.00;9.52;;;;;;;;;;5091193;28;20115;-61
2023/09/29 05:19:50;;;;;;;13.98;9.75;;;;;;;;;;5090915;28;20046;-60
2023/09/29 05:22:16;;;;;;;14.30;9.82;;;;;;;;;;5091247;28;20074;-60
2023/09/29 05:24:43;;;;;;;13.95;9.55;;;;;;;;;;5091721;28;20036;-60
2023/09/29 05:27:09;;;;;;;28.90;10.90;;;;;;;;;;5091053;28;20023;-60
2023/09/29 05:29:35;;;;;;;14.30;10.20;;;;;;;;;;5090838;28;20072;-60
2023/09/29 05:32:01;;;;;;;14.20;10.25;;;;;;;;;;5090739;28;20373;-60
2023/09/29 05:34:28;;;;;;;14.00;9.35;;;;;;;;;;5090748;28;20054;-59
2023/09/29 05:36:54;;;;;;;14.10;9.90;;;;;;;;;;5090865;28;20141;-60
2023/09/29 05:39:20;;;;;;;13.93;9.45;;;;;;;;;;5090607;28;20070;-59
2023/09/29 05:41:46;;;;;;;13.88;9.50;;;;;;;;;;5071898;28;20119;-58
2023/09/29 05:44:12;;;;;;;14.20;9.80;;;;;;;;;;5090335;28;20030;-60
2023/09/29 05:46:38;;;;;;;14.93;10.32;;;;;;;;;;5090724;28;20506;-60
2023/09/29 05:49:03;;;;;;;14.50;9.70;;;;;;;;;;5072303;28;20054;-59
2023/09/29 05:51:29;;;;;;;14.40;10.15;;;;;;;;;;5090172;28;20099;-60
2023/09/29 05:53:55;;;;;;;14.85;10.70;;;;;;;;;;5072315;28;20049;-60
2023/09/29 05:56:22;;;;;;;14.20;9.60;;;;;;;;;;5089854;28;20035;-58
2023/09/29 05:58:48;;;;;;;14.20;10.02;;;;;;;;;;5090254;28;20509;-59
2023/09/29 06:01:15;;;;;;;14.40;9.90;;;;;;;;;;5090006;28;20024;-60
2023/09/29 06:03:41;;;;;;;14.00;9.63;;;;;;;;;;5090723;28;20095;-60
2023/09/29 06:06:09;;;;;;;14.05;9.70;;;;;;;;;;5090262;28;20237;-61
2023/09/29 06:08:36;;;;;;;14.50;10.60;;;;;;;;;;5090233;28;20027;-59
2023/09/29 06:11:02;;;;;;;14.10;10.07;;;;;;;;;;5090138;28;20028;-60
2023/09/29 06:13:28;;;;;;;14.10;9.88;;;;;;;;;;5072254;28;20035;-59
2023/09/29 06:15:56;;;;;;;14.35;10.50;;;;;;;;;;5090246;28;20372;-58
2023/09/29 06:18:22;;;;;;;14.27;10.30;;;;;;;;;;5073547;28;20031;-60
2023/09/29 06:20:48;;;;;;;14.65;10.60;;;;;;;;;;5089818;28;20077;-60
2023/09/29 06:23:14;;;;;;;14.00;9.70;;;;;;;;;;5090376;28;20047;-61
2023/09/29 06:25:40;;;;;;;14.75;10.32;;;;;;;;;;5090102;28;20082;-60
2023/09/29 06:28:06;;;;;;;14.10;10.00;;;;;;;;;;5072014;28;20362;-60
2023/09/29 06:30:32;;;;;;;14.40;10.10;;;;;;;;;;5089611;28;20040;-60
2023/09/29 06:32:58;;;;;;;17.50;11.68;;;;;;;;;;5090273;28;20071;-59
2023/09/29 06:35:24;;;;;;;14.05;9.82;;;;;;;;;;5090066;28;20028;-60
2023/09/29 06:37:51;;;;;;;14.18;10.15;;;;;;;;;;5090102;28;20031;-59
2023/09/29 06:40:17;;;;;;;14.30;10.55;;;;;;;;;;5090023;28;20334;-60
2023/09/29 06:42:43;;;;;;;14.13;10.15;;;;;;;;;;5089663;28;20040;-60
2023/09/29 06:45:09;;;;;;;14.63;10.82;;;;;;;;;;5089596;28;20039;-61
2023/09/29 06:47:35;;;;;;;14.20;10.27;;;;;;;;;;5089674;28;20072;-55
2023/09/29 06:50:01;;;;;;;14.40;11.00;;;;;;;;;;5089788;28;20531;-59
2023/09/29 06:52:27;;;;;;;14.82;10.70;;;;;;;;;;5090007;28;20117;-60
2023/09/29 06:54:53;;;;;;;14.68;10.48;;;;;;;;;;5089606;28;20110;-60
2023/09/29 06:57:20;;;;;;;14.20;10.30;;;;;;;;;;5083318;28;20444;-60
2023/09/29 06:59:46;;;;;;;14.20;10.20;;;;;;;;;;5087457;28;20055;-59
2023/09/29 07:02:12;;;;;;;14.30;10.60;;;;;;;;;;5075118;28;20052;-60
2023/09/29 07:04:38;;;;;;;14.80;10.65;;;;;;;;;;5069270;28;20021;-59
2023/09/29 07:07:04;;;;;;;14.80;11.35;;;;;;;;;;5088513;28;20100;-59
2023/09/29 07:09:30;;;;;;;14.50;10.70;;;;;;;;;;5084940;28;20107;-57
2023/09/29 07:11:57;;;;;;;15.68;12.95;;;;;;;;;;5071717;28;20031;-60
2023/09/29 07:14:23;;;;;;;14.57;11.30;;;;;;;;;;5060193;28;20505;-59
2023/09/29 07:16:52;;;;;;;14.32;10.63;;;;;;;;;;5089757;28;20072;-57
2023/09/29 07:19:18;;;;;;;14.50;11.15;;;;;;;;;;5071151;28;20039;-56
2023/09/29 07:21:44;;;;;;;14.50;11.18;;;;;;;;;;5088913;28;20089;-59
2023/09/29 07:24:10;;;;;;;14.80;11.52;;;;;;;;;;5089197;28;20153;-56
2023/09/29 07:26:38;;;;;;;38.40;11.98;;;;;;;;;;5089703;28;20070;-59
2023/09/29 07:29:04;;;;;;;14.70;11.70;;;;;;;;;;5071614;28;20430;-61
2023/09/29 07:31:34;;;;;;;22.67;12.60;;;;;;;;;;5079903;28;20025;-60
2023/09/29 07:34:01;;;;;;;14.70;11.60;;;;;;;;;;5071293;28;20036;-53
2023/09/29 07:36:30;;;;;;;14.90;11.40;;;;;;;;;;5072853;28;20025;-54
2023/09/29 07:38:56;;;;;;;14.80;11.63;;;;;;;;;;5072496;28;20466;-55
2023/09/29 07:41:22;;;;;;;15.00;12.10;;;;;;;;;;5053964;28;20629;-50
2023/09/29 07:43:48;;;;;;;35.70;13.05;;;;;;;;;;5072405;28;20107;-52
2023/09/29 07:46:14;;;;;;;14.85;12.20;;;;;;;;;;5072416;28;20025;-53
2023/09/29 07:48:40;;;;;;;14.60;11.30;;;;;;;;;;5072298;28;20082;-52
2023/09/29 07:51:06;;;;;;;14.80;11.75;;;;;;;;;;5071980;28;20024;-54
2023/09/29 07:53:33;;;;;;;14.80;11.48;;;;;;;;;;5071978;28;20021;-52
2023/09/29 07:55:59;;;;;;;14.50;11.13;;;;;;;;;;5072060;28;20063;-52
2023/09/29 07:58:25;;;;;;;15.15;12.05;;;;;;;;;;5085641;28;20462;-51
2023/09/29 08:00:51;;;;;;;19.95;12.23;;;;;;;;;;5092067;28;20028;-53
2023/09/29 08:03:17;;;;;;;15.10;12.10;;;;;;;;;;5092262;28;20529;-54
2023/09/29 08:05:43;;;;;;;14.93;11.73;;;;;;;;;;5091876;28;20108;-51
2023/09/29 08:08:09;;;;;;;14.70;11.40;;;;;;;;;;5074346;28;20429;-54
2023/09/29 08:10:35;;;;;;;16.67;11.73;;;;;;;;;;5091985;28;20028;-52
2023/09/29 08:13:01;;;;;;;14.80;11.50;;;;;;;;;;5092073;28;20412;-54
2023/09/29 08:15:27;;;;;;;15.07;11.68;;;;;;;;;;5091879;28;20068;-54
2023/09/29 08:17:53;;;;;;;14.63;11.43;;;;;;;;;;5073610;28;20024;-53
2023/09/29 08:20:20;;;;;;;14.80;11.60;;;;;;;;;;5091972;28;20072;-54
2023/09/29 08:22:46;;;;;;;14.60;11.30;;;;;;;;;;5073726;28;20512;-49
2023/09/29 08:25:12;;;;;;;15.05;12.20;;;;;;;;;;5073714;28;20043;-53
2023/09/29 08:27:39;;;;;;;16.65;12.45;;;;;;;;;;5091747;28;20114;-54
2023/09/29 08:30:06;;;;;;;14.60;11.25;;;;;;;;;;5091625;28;20058;-54
2023/09/29 08:32:32;;;;;;;17.65;13.48;;;;;;;;;;5078933;28;20047;-53
2023/09/29 08:34:58;;;;;;;15.50;11.82;;;;;;;;;;5071631;28;20071;-51
2023/09/29 08:37:24;;;;;;;14.70;11.55;;;;;;;;;;5071459;28;20020;-51
2023/09/29 08:39:50;;;;;;;14.50;11.10;;;;;;;;;;5071254;28;20104;-50
2023/09/29 08:42:28;;;;;;;14.50;11.20;;;;;;;;;;5070905;28;20079;-51
2023/09/29 08:44:55;;;;;;;14.60;11.40;;;;;;;;;;5069429;28;20149;-54
2023/09/29 08:47:22;;;;;;;14.80;11.88;;;;;;;;;;5068893;28;20111;-50
2023/09/29 08:49:49;;;;;;;14.95;11.75;;;;;;;;;;5069552;28;20032;-50
2023/09/29 08:52:17;;;;;;;15.43;11.70;;;;;;;;;;5069376;28;20071;-51
2023/09/29 08:54:44;;;;;;;14.90;12.00;;;;;;;;;;5069250;28;20021;-51
2023/09/29 08:57:10;;;;;;;14.85;12.00;;;;;;;;;;5069090;28;20146;-53
2023/09/29 08:59:38;;;;;;;14.77;11.55;;;;;;;;;;5087833;28;20053;-52
2023/09/29 09:02:04;;;;;;;15.20;11.45;;;;;;;;;;5089620;28;20104;-50
2023/09/29 09:04:30;;;;;;;16.13;12.20;;;;;;;;;;5071943;28;20066;-54
2023/09/29 09:06:56;;;;;;;14.70;11.60;;;;;;;;;;5090981;28;20069;-49
2023/09/29 09:09:23;;;;;;;15.18;12.02;;;;;;;;;;5090985;28;20114;-49
2023/09/29 09:11:49;;;;;;;14.70;11.50;;;;;;;;;;5090835;28;20024;-50
2023/09/29 09:14:15;;;;;;;14.80;12.02;;;;;;;;;;5090742;28;20082;-52
2023/09/29 09:16:41;;;;;;;14.70;11.60;;;;;;;;;;5090750;28;20386;-52
2023/09/29 09:19:14;;;;;;;14.88;11.90;;;;;;;;;;5091019;28;20518;-50
2023/09/29 09:21:41;;;;;;;14.57;11.32;;;;;;;;;;5090782;28;20032;-53
2023/09/29 09:24:23;;;;;;;14.70;11.80;;;;;;;;;;5090623;28;20103;-54
2023/09/29 09:26:49;;;;;;;14.80;11.80;;;;;;;;;;5090789;28;20509;-48
2023/09/29 09:29:16;;;;;;;14.93;11.85;;;;;;;;;;5090564;28;20021;-53
2023/09/29 09:31:43;;;;;;;14.95;12.25;;;;;;;;;;5090268;28;20036;-53
2023/09/29 09:34:09;;;;;;;15.73;13.38;;;;;;;;;;5072284;28;20050;-54
2023/09/29 09:36:52;;;;;;;15.10;12.25;;;;;;;;;;5090400;28;20028;-53
2023/09/29 09:39:24;;;;;;;15.00;12.30;;;;;;;;;;5090228;28;20024;-51
2023/09/29 09:41:54;;;;;;;14.77;11.90;;;;;;;;;;5089808;28;20039;-55
2023/09/29 09:44:21;;;;;;;15.10;12.50;;;;;;;;;;5072086;28;20028;-54
2023/09/29 09:47:00;;;;;;;15.30;12.80;;;;;;;;;;5090264;28;20020;-54
2023/09/29 09:49:50;;;;;;;15.88;12.38;;;;;;;;;;5089839;28;20020;-54
2023/09/29 09:52:29;;;;;;;15.20;12.70;;;;;;;;;;5077534;28;20084;-52
2023/09/29 09:54:58;;;;;;;15.30;12.85;;;;;;;;;;5089739;28;20040;-52
2023/09/29 09:57:29;;;;;;;15.15;12.40;;;;;;;;;;5089528;28;20077;-55
2023/09/29 09:59:56;;;;;;;14.80;11.90;;;;;;;;;;5089978;28;20081;-51
2023/09/29 10:02:22;;;;;;;15.38;12.70;;;;;;;;;;5089794;28;20453;-56
2023/09/29 10:04:49;;;;;;;14.80;11.90;;;;;;;;;;5089788;28;20473;-53
2023/09/29 10:07:17;;;;;;;15.00;11.88;;;;;;;;;;5089780;28;20107;-54
2023/09/29 10:09:44;;;;;;;14.57;11.43;;;;;;;;;;5089811;28;20017;-51
2023/09/29 10:12:22;;;;;;;16.23;12.50;;;;;;;;;;5089568;28;20024;-55
2023/09/29 10:14:48;;;;;;;15.00;12.40;;;;;;;;;;5089257;28;20348;-53
2023/09/29 10:17:14;;;;;;;15.15;12.35;;;;;;;;;;5089308;28;20035;-52
2023/09/29 10:19:40;;;;;;;16.65;11.90;;;;;;;;;;5089574;28;20020;-54
2023/09/29 10:22:08;;;;;;;14.70;11.63;;;;;;;;;;5088904;28;20023;-54
2023/09/29 10:24:35;;;;;;;14.90;12.20;;;;;;;;;;5089075;28;20462;-50
2023/09/29 10:27:05;;;;;;;14.68;11.30;;;;;;;;;;5071569;28;20051;-56
2023/09/29 10:29:34;;;;;;;15.30;11.90;;;;;;;;;;5089299;28;20477;-54
2023/09/29 10:32:10;;;;;;;15.52;12.25;;;;;;;;;;5082524;28;20111;-53
2023/09/29 10:34:37;;;;;;;14.90;12.05;;;;;;;;;;5077632;28;20024;-52
2023/09/29 10:37:03;;;;;;;15.13;11.43;;;;;;;;;;5080385;28;20474;-48
2023/09/29 10:39:30;;;;;;;20.45;12.93;;;;;;;;;;5077220;28;20033;-46
2023/09/29 10:42:13;;;;;;;15.30;12.35;;;;;;;;;;5085126;28;20020;-52
2023/09/29 10:44:45;;;;;;;14.90;11.88;;;;;;;;;;5051089;28;20028;-52
2023/09/29 10:47:14;;;;;;;14.57;11.30;;;;;;;;;;5069105;28;20032;-51
2023/09/29 10:49:46;;;;;;;14.60;11.30;;;;;;;;;;5069175;28;20021;-51
2023/09/29 10:52:22;;;;;;;14.70;11.63;;;;;;;;;;5069515;28;20021;-52
2023/09/29 10:54:55;;;;;;;14.90;11.70;;;;;;;;;;5071743;28;20023;-51
2023/09/29 10:57:21;;;;;;;14.77;11.52;;;;;;;;;;5068634;28;20383;-50
2023/09/29 10:59:48;;;;;;;15.00;11.95;;;;;;;;;;5067428;28;20442;-52
2023/09/29 11:02:14;;;;;;;14.70;11.70;;;;;;;;;;5088775;28;20032;-54
2023/09/29 11:04:40;;;;;;;14.80;11.82;;;;;;;;;;5089168;28;20025;-53
2023/09/29 11:07:06;;;;;;;14.80;11.90;;;;;;;;;;5089870;28;20024;-46
2023/09/29 11:09:32;;;;;;;14.57;11.32;;;;;;;;;;5074197;28;20030;-53
2023/09/29 11:11:58;;;;;;;14.68;11.23;;;;;;;;;;5089785;28;20032;-52
2023/09/29 11:14:36;;;;;;;15.68;11.88;;;;;;;;;;5075179;28;20024;-48
2023/09/29 11:17:02;;;;;;;15.10;12.15;;;;;;;;;;5073020;28;20016;-51
2023/09/29 11:19:30;;;;;;;15.10;12.65;;;;;;;;;;5073078;28;20032;-49
2023/09/29 11:21:59;;;;;;;;;;;;;;;;;;5073293;28;20122;-57
2023/09/29 11:24:25;;;;;;;;;;;;;;;;;;5073391;28;20393;-54
2023/09/29 11:26:55;;;;;;;14.70;11.70;;;;;;;;;;5073934;28;19909;-52
2023/09/29 11:29:22;;;;;;;14.90;12.10;;;;;;;;;;5072978;28;20393;-53
2023/09/29 11:31:48;;;;;;;14.65;11.63;;;;;;;;;;5072914;28;20024;-52
2023/09/29 11:34:15;;;;;;;14.77;11.93;;;;;;;;;;5090257;28;20032;-52
2023/09/29 11:36:43;;;;;;;14.60;11.38;;;;;;;;;;5083412;28;20023;-54
2023/09/29 11:39:10;;;;;;;14.95;12.13;;;;;;;;;;5077805;28;20028;-53
2023/09/29 11:41:38;;;;;;;16.17;13.57;;;;;;;;;;5090363;28;20050;-55
2023/09/29 11:44:04;;;;;;;14.50;11.20;;;;;;;;;;5092563;28;20023;-52
2023/09/29 11:46:30;;;;;;;14.70;11.40;;;;;;;;;;5074162;28;20042;-51
2023/09/29 11:48:56;;;;;;;14.70;11.40;;;;;;;;;;5092387;28;20024;-51
2023/09/29 11:51:22;;;;;;;15.00;11.68;;;;;;;;;;5092323;28;20035;-52
2023/09/29 11:53:49;;;;;;;16.42;12.95;;;;;;;;;;5074956;28;20464;-53
2023/09/29 11:56:15;;;;;;;15.88;12.25;;;;;;;;;;5092376;28;20092;-55
2023/09/29 11:58:41;;;;;;;15.18;12.10;;;;;;;;;;5073993;28;20055;-50
2023/09/29 12:01:08;;;;;;;14.82;12.02;;;;;;;;;;5092017;28;20020;-53
2023/09/29 12:03:35;;;;;;;15.80;12.27;;;;;;;;;;5085880;28;20074;-52
2023/09/29 12:06:02;;;;;;;18.65;13.50;;;;;;;;;;5061961;28;20028;-53
2023/09/29 12:08:28;;;;;;;14.80;11.90;;;;;;;;;;5081367;28;20041;-49
2023/09/29 12:10:54;;;;;;;14.73;11.70;;;;;;;;;;5082321;28;20024;-54
2023/09/29 12:13:20;;;;;;;14.75;11.85;;;;;;;;;;5080504;28;20024;-52
2023/09/29 12:15:46;;;;;;;16.00;13.10;;;;;;;;;;5081440;28;20531;-53
2023/09/29 12:18:13;;;;;;;15.10;12.20;;;;;;;;;;5081908;28;20029;-49
2023/09/29 12:20:39;;;;;;;15.85;12.68;;;;;;;;;;5061295;28;20017;-51
2023/09/29 12:23:08;;;;;;;15.25;12.40;;;;;;;;;;5080303;28;20032;-52
2023/09/29 12:25:33;;;;;;;;;;;;;;;;;;5075658;28;20397;-55
2023/09/29 12:27:59;;;;;;;16.65;13.43;;;;;;;;;;5081146;28;19916;-57
2023/09/29 12:30:25;;;;;;;15.10;12.70;;;;;;;;;;5082135;28;20020;-50
2023/09/29 12:32:52;;;;;;;14.80;12.20;;;;;;;;;;5081602;28;20527;-54
2023/09/29 12:35:18;;;;;;;15.00;12.50;;;;;;;;;;5075590;28;20028;-51
2023/09/29 12:37:44;;;;;;;15.50;13.40;;;;;;;;;;5076535;28;20027;-54
2023/09/29 12:40:15;;;;;;;16.08;12.70;;;;;;;;;;5079727;28;20040;-52
2023/09/29 12:42:49;;;;;;;15.15;12.70;;;;;;;;;;5082586;28;20035;-53
2023/09/29 12:45:17;;;;;;;15.63;13.43;;;;;;;;;;5079949;28;20209;-51
2023/09/29 12:47:44;;;;;;;16.65;14.07;;;;;;;;;;5080582;28;20038;-52
2023/09/29 12:50:10;;;;;;;14.95;12.38;;;;;;;;;;5080428;28;20056;-52
2023/09/29 12:52:37;;;;;;;15.20;12.80;;;;;;;;;;5077310;28;20096;-52
2023/09/29 12:55:03;;;;;;;14.80;12.15;;;;;;;;;;5081114;28;20557;-52
2023/09/29 12:57:30;;;;;;;15.07;12.65;;;;;;;;;;5078884;28;20437;-52
2023/09/29 12:59:57;;;;;;;15.10;12.68;;;;;;;;;;5080044;28;20044;-51
2023/09/29 13:02:25;;;;;;;15.40;12.88;;;;;;;;;;5056132;28;20020;-50
2023/09/29 13:04:51;;;;;;;15.25;12.40;;;;;;;;;;5070043;28;20021;-54
2023/09/29 13:07:17;;;;;;;15.02;12.38;;;;;;;;;;5051317;28;20028;-52
2023/09/29 13:09:43;;;;;;;15.30;12.70;;;;;;;;;;5068823;28;20024;-57
2023/09/29 13:12:09;;;;;;;17.25;12.77;;;;;;;;;;5068893;28;20029;-55
2023/09/29 13:14:36;;;;;;;15.20;12.60;;;;;;;;;;5068889;28;20025;-54
2023/09/29 13:17:02;;;;;;;14.68;11.60;;;;;;;;;;5068792;28;20024;-49
2023/09/29 13:19:28;;;;;;;14.80;12.07;;;;;;;;;;5069510;28;20378;-49
2023/09/29 13:21:55;;;;;;;14.70;11.70;;;;;;;;;;5070105;28;20076;-51
2023/09/29 13:24:21;;;;;;;14.90;11.90;;;;;;;;;;5070098;28;20031;-51
2023/09/29 13:26:47;;;;;;;17.73;12.10;;;;;;;;;;5070273;28;20355;-56
2023/09/29 13:29:17;;;;;;;15.63;12.85;;;;;;;;;;5070734;28;20126;-57
2023/09/29 13:31:43;;;;;;;15.10;12.40;;;;;;;;;;5069137;28;20096;-57
2023/09/29 13:34:10;;;;;;;15.38;12.70;;;;;;;;;;5069685;28;20052;-49
2023/09/29 13:36:36;;;;;;;14.80;11.85;;;;;;;;;;5075931;28;20119;-54
2023/09/29 13:39:04;;;;;;;14.95;12.27;;;;;;;;;;5063103;28;20082;-54
2023/09/29 13:41:30;;;;;;;;;;;;;;;;;;5078967;28;20024;-54
2023/09/29 13:43:57;;;;;;;15.13;12.60;;;;;;;;;;5081644;28;19923;-53
2023/09/29 13:46:23;;;;;;;14.82;11.88;;;;;;;;;;5081570;28;20133;-53
2023/09/29 13:48:50;;;;;;;14.90;12.10;;;;;;;;;;5078894;28;20024;-55
2023/09/29 13:51:16;;;;;;;14.77;11.90;;;;;;;;;;5080438;28;20019;-58
2023/09/29 13:53:42;;;;;;;15.20;12.85;;;;;;;;;;5078669;28;20020;-56
2023/09/29 13:56:12;;;;;;;16.98;12.82;;;;;;;;;;5074324;28;20025;-56
2023/09/29 13:58:38;;;;;;;14.90;12.20;;;;;;;;;;5077931;28;20474;-56
2023/09/29 14:01:09;;;;;;;15.10;12.30;;;;;;;;;;5079011;28;20043;-54
2023/09/29 14:03:35;;;;;;;18.13;12.50;;;;;;;;;;5077373;28;20060;-55
2023/09/29 14:06:02;;;;;;;14.70;11.50;;;;;;;;;;5069407;28;20063;-57
2023/09/29 14:08:28;;;;;;;14.70;11.50;;;;;;;;;;5069860;28;20024;-51
2023/09/29 14:10:54;;;;;;;14.90;12.10;;;;;;;;;;5051669;28;20021;-50
2023/09/29 14:13:22;;;;;;;14.70;11.52;;;;;;;;;;5069560;28;20031;-51
2023/09/29 14:15:48;;;;;;;15.00;11.80;;;;;;;;;;5051631;28;20417;-51
2023/09/29 14:18:14;;;;;;;15.05;12.15;;;;;;;;;;5069573;28;20025;-50
2023/09/29 14:20:41;;;;;;;14.80;11.80;;;;;;;;;;5051187;28;20111;-55
2023/09/29 14:23:07;;;;;;;14.60;11.35;;;;;;;;;;5069336;28;20020;-59